createdAt,value
2017-02-03T09:55:16.932Z,105
2017-02-03T09:56:31.120Z,110
2017-02-03T09:57:45.574Z,110
2017-02-03T09:58:59.716Z,110
2017-02-03T10:00:17.273Z,110
2017-02-03T10:01:32.628Z,110
2017-02-03T10:02:47.056Z,120
2017-02-03T10:04:01.203Z,135
2017-02-03T10:05:15.721Z,140
2017-02-03T10:06:32.096Z,135
2017-02-03T10:07:46.633Z,125
2017-02-03T10:09:01.675Z,120
2017-02-03T10:10:16.730Z,105
2017-02-03T10:11:31.641Z,85
2017-02-03T10:12:46.240Z,80
2017-02-03T10:14:00.524Z,75
2017-02-03T10:15:15.097Z,80
2017-02-03T10:16:29.138Z,80
2017-02-03T10:17:43.899Z,85
2017-02-03T10:18:57.980Z,100
2017-02-03T10:20:12.493Z,115
2017-02-03T10:21:28.738Z,125
2017-02-03T10:22:43.805Z,130
2017-02-03T10:24:00.579Z,140
2017-02-03T10:25:15.026Z,145
2017-02-03T10:26:29.507Z,135
2017-02-03T10:27:43.945Z,130
2017-02-03T10:28:58.553Z,125
2017-02-03T10:30:12.520Z,120
2017-02-03T10:31:27.115Z,115
2017-02-03T10:32:41.404Z,105
2017-02-03T10:33:55.997Z,95
2017-02-03T10:35:10.180Z,85
2017-02-03T10:36:24.849Z,75
2017-02-03T10:37:38.856Z,70
2017-02-03T10:38:53.321Z,60
2017-02-03T10:40:07.812Z,50
2017-02-03T10:41:22.471Z,50
2017-02-03T10:42:36.493Z,55
2017-02-03T10:43:50.644Z,50
2017-02-03T10:45:05.878Z,50
2017-02-03T10:46:21.548Z,55
2017-02-03T10:47:35.731Z,60
2017-02-03T10:48:49.740Z,80
2017-02-03T10:50:05.169Z,85
2017-02-03T10:51:19.721Z,100
2017-02-03T10:52:36.301Z,95
2017-02-03T10:53:50.889Z,80
2017-02-03T10:55:04.862Z,75
2017-02-03T10:56:19.052Z,75
2017-02-03T10:57:34.270Z,105
2017-02-03T10:58:48.426Z,70
2017-02-03T11:00:03.981Z,70
2017-02-03T11:01:18.168Z,95
2017-02-03T11:02:34.324Z,100
2017-02-03T11:03:49.776Z,100
2017-02-03T11:05:03.791Z,80
2017-02-03T11:06:29.741Z,70
2017-02-03T11:07:43.898Z,60
2017-02-03T11:08:58.084Z,70
2017-02-03T11:10:12.711Z,70
2017-02-03T11:11:27.601Z,75
2017-02-03T11:12:43.333Z,70
2017-02-03T11:13:57.777Z,60
2017-02-03T11:15:12.415Z,75
2017-02-03T11:16:26.389Z,80
2017-02-03T11:17:41.370Z,85
2017-02-03T11:18:55.888Z,90
2017-02-03T11:20:10.556Z,90
2017-02-03T11:21:24.601Z,95
2017-02-03T11:22:38.952Z,95
2017-02-03T11:23:54.153Z,100
2017-02-03T11:25:08.745Z,90
2017-02-03T11:26:23.203Z,85
2017-02-03T11:27:38.627Z,85
2017-02-03T11:28:53.134Z,100
2017-02-03T11:30:09.322Z,120
2017-02-03T11:31:24.472Z,130
2017-02-03T11:32:39.616Z,135
2017-02-03T11:33:54.091Z,140
2017-02-03T11:35:08.193Z,135
2017-02-03T11:36:22.925Z,140
2017-02-03T11:37:37.137Z,150
2017-02-03T11:38:51.747Z,150
2017-02-03T11:40:05.942Z,155
2017-02-03T11:41:25.215Z,155
2017-02-03T11:42:40.415Z,155
2017-02-03T11:43:55.132Z,150
2017-02-03T11:45:09.672Z,145
2017-02-03T11:46:25.280Z,140
2017-02-03T11:47:39.449Z,135
2017-02-03T11:48:53.791Z,130
2017-02-03T11:50:09.328Z,125
2017-02-03T11:51:24.711Z,125
2017-02-03T11:52:39.357Z,120
2017-02-03T11:53:53.374Z,110
2017-02-03T11:55:07.896Z,110
2017-02-03T11:56:21.838Z,100
2017-02-03T11:57:35.979Z,95
2017-02-03T11:58:50.578Z,95
2017-02-03T12:00:05.176Z,95
2017-02-03T12:02:23.292Z,95
2017-02-03T12:03:38.371Z,95
2017-02-03T12:04:52.304Z,100
2017-02-03T12:06:07.460Z,100
2017-02-03T12:07:22.496Z,115
2017-02-03T12:08:37.293Z,115
2017-02-03T12:09:51.305Z,120
2017-02-03T12:11:05.717Z,125
2017-02-03T12:12:20.177Z,130
2017-02-03T12:13:34.678Z,135
2017-02-03T12:14:50.484Z,145
2017-02-03T12:16:05.127Z,145
2017-02-03T12:17:21.035Z,140
2017-02-03T12:18:35.538Z,135
2017-02-03T12:19:50.064Z,135
2017-02-03T12:21:05.793Z,125
2017-02-03T12:22:20.258Z,115
2017-02-03T12:23:34.755Z,100
2017-02-03T12:24:50.163Z,95
2017-02-03T12:26:04.929Z,85
2017-02-03T12:27:19.240Z,90
2017-02-03T12:28:33.239Z,90
2017-02-03T12:29:49.087Z,90
2017-02-03T12:31:03.246Z,105
2017-02-03T12:32:18.356Z,125
2017-02-03T12:33:32.914Z,125
2017-02-03T12:34:47.457Z,125
2017-02-03T12:36:01.585Z,120
2017-02-03T12:37:16.513Z,110
2017-02-03T12:38:31.377Z,100
2017-02-03T12:39:48.144Z,100
2017-02-03T12:41:03.738Z,110
2017-02-03T12:42:19.370Z,115
2017-02-03T12:43:33.372Z,120
2017-02-03T12:44:48.008Z,120
2017-02-03T12:46:03.839Z,125
2017-02-03T12:47:17.808Z,130
2017-02-03T12:48:33.702Z,130
2017-02-03T12:49:48.637Z,135
2017-02-03T12:51:03.350Z,140
2017-02-03T12:52:17.361Z,140
2017-02-03T12:53:32.434Z,140
2017-02-03T12:54:47.529Z,145
2017-02-03T12:56:03.335Z,150
2017-02-03T12:57:17.786Z,160
2017-02-03T12:58:31.788Z,165
2017-02-03T13:00:36.351Z,170
2017-02-03T13:01:50.994Z,170
2017-02-03T13:03:05.980Z,175
2017-02-03T13:04:21.042Z,175
2017-02-03T13:05:35.221Z,175
2017-02-03T13:06:49.694Z,165
2017-02-03T13:08:03.669Z,160
2017-02-03T13:09:17.789Z,140
2017-02-03T13:56:24.744Z,25
2017-02-03T13:57:39.646Z,20
2017-02-03T13:58:55.035Z,20
2017-02-03T14:00:09.396Z,15
2017-02-03T14:01:24.930Z,10
2017-02-03T14:02:39.918Z,5
2017-02-03T14:03:54.832Z,10
2017-02-03T14:05:10.022Z,10
2017-02-03T14:06:24.486Z,15
2017-02-03T14:07:57.636Z,15
2017-02-03T14:09:11.823Z,15
2017-02-03T14:10:25.915Z,15
2017-02-03T14:11:40.052Z,20
2017-02-03T14:12:54.619Z,20
2017-02-03T14:14:08.864Z,15
2017-02-03T14:15:23.416Z,20
2017-02-03T14:16:37.982Z,20
2017-02-03T14:17:52.398Z,20
2017-02-03T14:19:06.825Z,20
2017-02-03T14:20:20.849Z,25
2017-02-03T14:21:35.911Z,30
2017-02-03T14:22:51.934Z,35
2017-02-03T14:24:05.995Z,30
2017-02-03T14:25:22.982Z,30
2017-02-03T14:26:38.137Z,30
2017-02-03T14:27:53.179Z,30
2017-02-03T14:29:07.373Z,35
2017-02-03T14:30:22.303Z,35
2017-02-03T14:31:37.877Z,35
2017-02-03T14:32:52.331Z,35
2017-02-03T14:34:06.986Z,40
2017-02-03T14:35:21.840Z,45
2017-02-03T14:36:37.009Z,45
2017-02-03T14:37:53.019Z,45
2017-02-03T14:39:07.041Z,45
2017-02-03T14:40:24.635Z,45
2017-02-03T14:41:38.635Z,45
2017-02-03T14:42:53.566Z,50
2017-02-03T14:44:08.429Z,50
2017-02-03T14:45:24.041Z,50
2017-02-03T14:46:38.740Z,45
2017-02-03T14:47:53.756Z,45
2017-02-03T14:49:08.310Z,45
2017-02-03T14:50:23.267Z,45
2017-02-03T14:51:38.632Z,45
2017-02-03T14:52:53.136Z,45
2017-02-03T14:54:07.337Z,45
2017-02-03T14:55:23.213Z,45
2017-02-03T14:56:38.693Z,45
2017-02-03T14:57:53.271Z,45
2017-02-03T14:59:09.438Z,40
2017-02-03T15:00:23.535Z,40
2017-02-03T15:01:39.523Z,40
2017-02-03T15:02:54.250Z,40
2017-02-03T15:04:09.872Z,40
2017-02-03T15:05:25.667Z,40
2017-02-03T15:06:41.211Z,45
2017-02-03T15:07:56.533Z,40
2017-02-03T15:09:10.816Z,40
2017-02-03T15:10:25.125Z,40
2017-02-03T15:11:40.653Z,40
2017-02-03T15:12:55.481Z,40
2017-02-03T15:14:09.529Z,35
2017-02-03T15:15:23.708Z,35
2017-02-03T15:16:39.398Z,30
2017-02-03T15:17:54.161Z,30
2017-02-03T15:19:10.005Z,30
2017-02-03T15:20:25.263Z,25
2017-02-03T15:21:39.217Z,20
2017-02-03T15:22:53.767Z,15
2017-02-03T15:24:09.391Z,15
2017-02-03T15:25:24.421Z,20
2017-02-03T15:26:40.574Z,20
2017-02-03T15:27:55.186Z,25
2017-02-03T15:29:09.658Z,25
2017-02-03T15:30:29.493Z,25
2017-02-03T15:31:43.752Z,30
2017-02-03T15:32:58.227Z,30
2017-02-03T15:34:13.672Z,30
2017-02-03T15:35:29.801Z,25
2017-02-03T15:36:45.222Z,25
2017-02-03T15:37:59.681Z,25
2017-02-03T15:39:14.790Z,20
2017-02-03T15:40:29.756Z,20
2017-02-03T15:41:43.905Z,20
2017-02-03T15:42:58.331Z,20
2017-02-03T15:44:13.449Z,20
2017-02-03T15:45:27.901Z,20
2017-02-03T15:46:43.152Z,15
2017-02-03T15:47:58.168Z,15
2017-02-03T15:49:12.470Z,15
2017-02-03T15:50:27.152Z,15
2017-02-03T15:51:42.378Z,10
2017-02-03T15:52:58.040Z,10
2017-02-03T15:54:12.682Z,10
2017-02-03T15:55:28.324Z,10
2017-02-03T15:56:43.349Z,10
2017-02-03T15:57:59.815Z,10
2017-02-03T15:59:14.067Z,10
2017-02-03T16:00:28.660Z,10
2017-02-03T16:01:43.208Z,5
2017-02-03T16:02:57.818Z,5
2017-02-03T16:04:14.445Z,5
2017-02-03T16:05:28.852Z,5
2017-02-03T16:06:46.400Z,5
2017-02-03T16:08:01.530Z,5
2017-02-03T16:09:16.564Z,5
2017-02-03T16:10:31.190Z,5
2017-02-03T16:11:46.576Z,5
2017-02-03T16:13:02.159Z,5
2017-02-03T16:14:17.798Z,10
2017-02-03T16:15:32.329Z,10
2017-02-03T16:16:46.664Z,10
2017-02-03T16:18:01.455Z,5
2017-02-03T16:19:16.481Z,5
2017-02-03T16:20:31.656Z,5
2017-02-03T16:21:46.965Z,5
2017-02-03T16:23:01.511Z,5
2017-02-03T16:24:35.816Z,5
2017-02-03T16:25:50.477Z,0
2017-02-03T16:27:05.671Z,0
2017-02-03T16:28:20.273Z,0
2017-02-03T16:29:34.749Z,0
2017-02-03T16:30:49.703Z,0
2017-02-03T16:32:04.682Z,0
2017-02-03T16:33:19.761Z,0
2017-02-03T16:34:34.865Z,0
2017-02-03T16:35:48.849Z,0
2017-02-03T16:37:03.828Z,0
2017-02-03T16:38:19.982Z,0
2017-02-03T16:39:34.788Z,0
2017-02-03T16:40:48.874Z,0
2017-02-03T16:42:03.384Z,0
2017-02-03T16:43:18.904Z,0
2017-02-03T16:44:33.876Z,0
2017-02-03T16:45:49.576Z,0
2017-02-03T16:47:04.920Z,0
2017-02-03T16:48:20.190Z,0
2017-02-03T16:49:35.710Z,0
2017-02-03T16:50:49.718Z,0
2017-02-03T16:52:04.977Z,0
2017-02-03T16:53:20.384Z,0
2017-02-03T16:54:36.034Z,0
2017-02-03T16:55:51.496Z,0
2017-02-03T16:57:06.991Z,0
2017-02-03T16:58:21.009Z,0
2017-02-03T16:59:36.254Z,0
2017-02-03T17:00:51.216Z,0
2017-02-03T17:02:06.814Z,0
2017-02-03T17:03:22.111Z,0
2017-02-03T17:04:37.462Z,0
2017-02-03T17:05:51.927Z,0
2017-02-03T17:07:06.355Z,0
2017-02-03T17:08:35.876Z,0
2017-02-03T17:09:51.460Z,0
2017-02-03T17:11:07.155Z,0
2017-02-03T17:12:22.117Z,0
2017-02-03T17:13:38.087Z,0
2017-02-03T17:14:53.605Z,0
2017-02-03T17:16:11.633Z,0
2017-02-03T17:17:26.611Z,0
2017-02-03T17:18:41.039Z,0
2017-02-03T17:19:56.257Z,0
2017-02-03T17:21:10.591Z,0
2017-02-03T17:22:25.194Z,0
2017-02-03T17:23:40.573Z,0
2017-02-03T17:24:55.227Z,0
2017-02-03T17:26:10.339Z,0
2017-02-03T17:27:24.901Z,0
2017-02-03T17:28:38.989Z,0
2017-02-03T17:29:53.176Z,0
2017-02-03T17:31:07.173Z,0
2017-02-03T17:32:21.431Z,0
2017-02-03T17:33:36.781Z,0
2017-02-03T17:35:24.009Z,0
2017-02-03T17:36:55.203Z,0
2017-02-03T17:38:11.961Z,0
2017-02-03T17:39:28.004Z,0
2017-02-03T17:40:43.290Z,0
2017-02-03T17:41:57.833Z,0
2017-02-03T17:43:12.808Z,0
2017-02-03T17:44:28.075Z,0
2017-02-03T17:45:42.755Z,0
2017-02-03T17:46:57.399Z,0
2017-02-03T17:48:12.117Z,0
2017-02-03T17:49:26.735Z,0
2017-02-03T17:50:40.720Z,0
2017-02-03T17:51:56.769Z,0
2017-02-03T17:53:12.765Z,0
2017-02-03T17:54:27.871Z,0
2017-02-03T17:55:42.300Z,0
2017-02-03T17:56:57.904Z,0
2017-02-03T17:58:14.786Z,0
2017-02-03T17:59:29.907Z,0
2017-02-03T18:00:45.927Z,0
2017-02-03T18:02:01.244Z,0
2017-02-03T18:03:16.759Z,0
2017-02-03T18:04:30.956Z,0
2017-02-03T18:05:45.015Z,0
2017-02-03T18:07:00.253Z,0
2017-02-03T18:08:14.848Z,0
2017-02-03T18:09:29.853Z,0
2017-02-03T18:10:44.986Z,0
2017-02-03T18:12:00.694Z,0
2017-02-03T18:13:22.920Z,0
2017-02-03T18:14:38.978Z,0
2017-02-03T18:15:53.433Z,0
2017-02-03T18:17:08.223Z,0
2017-02-03T18:18:23.885Z,0
2017-02-03T18:19:38.683Z,0
2017-02-03T18:20:54.482Z,0
2017-02-03T18:22:15.587Z,0
2017-02-03T18:23:30.947Z,0
2017-02-03T18:24:45.440Z,0
2017-02-03T18:26:02.049Z,0
2017-02-03T18:27:17.196Z,0
2017-02-03T18:28:33.257Z,0
2017-02-03T18:29:48.959Z,0
2017-02-03T18:31:04.357Z,0
2017-02-03T18:32:19.502Z,0
2017-02-03T18:33:34.929Z,0
2017-02-03T18:34:51.400Z,0
2017-02-03T18:36:06.710Z,0
2017-02-03T18:37:22.247Z,0
2017-02-03T18:38:38.247Z,0
2017-02-03T18:39:54.863Z,0
2017-02-03T18:41:09.083Z,0
2017-02-03T18:42:23.904Z,0
2017-02-03T18:43:38.026Z,0
2017-02-03T18:44:53.621Z,0
2017-02-03T18:46:08.353Z,0
2017-02-03T18:47:22.407Z,0
2017-02-03T18:48:37.330Z,0
2017-02-03T18:49:51.390Z,0
2017-02-03T18:51:06.593Z,0
2017-02-03T18:52:20.637Z,0
2017-02-03T18:53:35.935Z,0
2017-02-03T18:54:51.059Z,0
2017-02-03T18:56:05.730Z,0
2017-02-03T18:57:21.692Z,0
2017-02-03T18:58:36.019Z,0
2017-02-03T18:59:51.793Z,0
2017-02-03T19:01:07.522Z,0
2017-02-03T19:02:22.333Z,0
2017-02-03T19:03:38.231Z,0
2017-02-03T19:04:52.261Z,0
2017-02-03T19:06:07.375Z,0
2017-02-03T19:07:21.436Z,0
2017-02-03T19:08:36.469Z,0
2017-02-03T19:09:52.147Z,0
2017-02-03T19:11:06.898Z,0
2017-02-03T19:12:21.355Z,0
2017-02-03T19:13:35.825Z,0
2017-02-03T19:14:50.741Z,0
2017-02-03T19:16:05.693Z,0
2017-02-03T19:17:20.536Z,0
2017-02-03T19:18:36.412Z,0
2017-02-03T19:19:51.366Z,0
2017-02-03T19:21:05.610Z,0
2017-02-03T19:22:19.914Z,0
2017-02-03T19:23:34.604Z,0
2017-02-03T19:24:51.031Z,0
2017-02-03T19:26:06.705Z,0
2017-02-03T19:27:21.896Z,0
2017-02-03T19:28:36.310Z,0
2017-02-03T19:29:52.482Z,0
2017-02-03T19:31:07.135Z,0
2017-02-03T19:32:21.232Z,0
2017-02-03T19:33:36.194Z,0
2017-02-03T19:34:51.846Z,0
2017-02-03T19:36:06.063Z,0
2017-02-03T19:37:20.053Z,0
2017-02-03T19:38:34.433Z,0
2017-02-03T19:39:48.473Z,0
2017-02-03T19:41:03.389Z,0
2017-02-03T19:42:17.367Z,0
2017-02-03T19:43:33.569Z,0
2017-02-03T19:44:48.203Z,0
2017-02-03T19:46:03.494Z,0
2017-02-03T19:47:19.317Z,0
2017-02-03T19:48:34.287Z,0
2017-02-03T19:49:48.810Z,0
2017-02-03T19:51:03.049Z,0
2017-02-03T19:52:20.205Z,0
2017-02-03T19:53:36.364Z,0
2017-02-03T19:54:51.402Z,0
2017-02-03T19:56:05.385Z,0
2017-02-03T19:57:19.851Z,0
2017-02-03T19:58:34.385Z,0
2017-02-03T19:59:50.504Z,0
2017-02-03T20:01:04.485Z,0
2017-02-03T20:02:19.147Z,0
2017-02-03T20:03:34.223Z,0
2017-02-03T20:04:49.665Z,0
2017-02-03T20:06:04.404Z,0
2017-02-03T20:07:20.148Z,0
2017-02-03T20:08:34.356Z,0
2017-02-03T20:09:49.430Z,0
2017-02-03T20:11:06.311Z,0
2017-02-03T20:12:22.559Z,0
2017-02-03T20:13:47.990Z,0
2017-02-03T20:15:11.530Z,0
2017-02-03T20:16:26.223Z,0
2017-02-03T20:17:41.220Z,0
2017-02-03T20:18:55.445Z,0
2017-02-03T20:20:15.751Z,0
2017-02-03T20:21:30.441Z,0
2017-02-03T20:22:45.360Z,0
2017-02-03T20:23:59.569Z,0
2017-02-03T20:25:14.049Z,0
2017-02-03T20:26:30.763Z,0
2017-02-03T20:27:49.454Z,0
2017-02-03T20:29:21.372Z,0
2017-02-03T20:30:37.177Z,0
2017-02-03T20:31:52.497Z,0
2017-02-03T20:33:07.614Z,0
2017-02-03T20:34:23.256Z,0
2017-02-03T20:35:37.732Z,0
2017-02-03T20:36:52.887Z,0
2017-02-03T20:38:08.347Z,0
2017-02-03T20:39:23.545Z,0
2017-02-03T20:40:37.803Z,0
2017-02-03T20:41:53.170Z,0
2017-02-03T20:43:17.341Z,0
2017-02-03T20:44:31.816Z,0
2017-02-03T20:45:46.288Z,0
2017-02-03T20:47:00.908Z,0
2017-02-03T20:48:14.898Z,0
2017-02-03T20:49:30.101Z,0
2017-02-03T20:50:44.416Z,0
2017-02-03T20:51:59.599Z,0
2017-02-03T20:53:14.907Z,0
2017-02-03T20:54:28.964Z,0
2017-02-03T20:55:44.472Z,0
2017-02-03T20:56:58.919Z,0
2017-02-03T20:58:13.658Z,0
2017-02-03T20:59:28.663Z,0
2017-02-03T21:00:42.919Z,0
2017-02-03T21:01:58.356Z,0
2017-02-03T21:03:13.297Z,0
2017-02-03T21:04:28.410Z,0
2017-02-03T21:05:44.062Z,0
2017-02-03T21:06:59.892Z,0
2017-02-03T21:08:14.160Z,0
2017-02-03T21:09:28.871Z,0
2017-02-03T21:10:45.811Z,0
2017-02-03T21:11:59.827Z,0
2017-02-03T21:13:14.464Z,0
2017-02-03T21:14:29.295Z,0
2017-02-03T21:15:43.452Z,0
2017-02-03T21:16:57.921Z,0
2017-02-03T21:18:12.037Z,0
2017-02-03T21:19:27.063Z,0
2017-02-03T21:20:42.316Z,0
2017-02-03T21:21:57.669Z,0
2017-02-03T21:23:11.996Z,0
2017-02-03T21:24:27.154Z,0
2017-02-03T21:25:42.645Z,0
2017-02-03T21:26:56.944Z,0
2017-02-03T21:28:11.259Z,0
2017-02-03T21:29:25.948Z,0
2017-02-03T21:30:40.090Z,0
2017-02-03T21:31:55.078Z,0
2017-02-03T21:33:10.540Z,0
2017-02-03T21:34:24.565Z,0
2017-02-03T21:35:38.711Z,0
2017-02-03T21:36:52.745Z,0
2017-02-03T21:38:07.031Z,0
2017-02-03T21:39:22.273Z,0
2017-02-03T21:40:37.365Z,0
2017-02-03T21:41:51.646Z,0
2017-02-03T21:43:06.745Z,0
2017-02-03T21:44:21.713Z,0
2017-02-03T21:45:37.143Z,0
2017-02-03T21:46:51.615Z,0
2017-02-03T21:48:05.757Z,0
2017-02-03T21:49:20.718Z,0
2017-02-03T21:50:35.499Z,0
2017-02-03T21:51:50.497Z,0
2017-02-03T21:53:05.093Z,0
2017-02-03T21:54:19.086Z,0
2017-02-03T21:55:33.352Z,0
2017-02-03T21:56:47.392Z,0
2017-02-03T21:58:02.370Z,0
2017-02-03T21:59:16.421Z,0
2017-02-03T22:00:31.130Z,0
2017-02-03T22:01:45.102Z,0
2017-02-03T22:02:59.223Z,0
2017-02-03T22:04:13.978Z,0
2017-02-03T22:05:28.934Z,0
2017-02-03T22:06:43.349Z,0
2017-02-03T22:07:57.968Z,0
2017-02-03T22:09:12.495Z,0
2017-02-03T22:10:30.671Z,0
2017-02-03T22:11:45.631Z,0
2017-02-03T22:13:00.016Z,0
2017-02-03T22:14:14.211Z,0
2017-02-03T22:15:29.003Z,0
2017-02-03T22:16:43.352Z,0
2017-02-03T22:18:08.394Z,0
2017-02-03T22:19:23.032Z,0
2017-02-03T22:20:37.848Z,0
2017-02-03T22:21:52.467Z,0
2017-02-03T22:23:06.452Z,0
2017-02-03T22:24:21.431Z,0
2017-02-03T22:25:36.808Z,0
2017-02-03T22:27:00.518Z,0
2017-02-03T22:28:17.506Z,0
2017-02-03T22:29:32.906Z,0
2017-02-03T22:30:56.260Z,0
2017-02-03T22:32:28.412Z,0
2017-02-03T22:33:42.970Z,0
2017-02-03T22:34:57.025Z,0
2017-02-03T22:36:11.246Z,0
2017-02-03T22:37:26.129Z,0
2017-02-03T22:38:41.070Z,0
2017-02-03T22:39:55.537Z,0
2017-02-03T22:41:10.777Z,0
2017-02-03T22:42:25.776Z,0
2017-02-03T22:43:39.762Z,0
2017-02-03T22:44:54.627Z,0
2017-02-03T22:46:09.372Z,0
2017-02-03T22:47:24.431Z,0
2017-02-03T22:48:38.893Z,0
2017-02-03T22:50:24.488Z,0
2017-02-03T22:51:38.632Z,0
2017-02-03T22:52:53.540Z,0
2017-02-03T22:54:08.100Z,0
2017-02-03T22:55:22.073Z,0
2017-02-03T22:56:36.978Z,0
2017-02-03T22:57:50.921Z,0
2017-02-03T22:59:05.069Z,0
2017-02-03T23:00:19.588Z,0
2017-02-03T23:01:33.769Z,0
2017-02-03T23:02:48.479Z,0
2017-02-03T23:04:02.640Z,0
2017-02-03T23:05:17.046Z,0
2017-02-03T23:06:32.118Z,0
2017-02-03T23:07:46.110Z,0
2017-02-03T23:09:01.007Z,0
2017-02-03T23:10:15.005Z,0
2017-02-03T23:11:29.120Z,0
2017-02-03T23:12:43.135Z,0
2017-02-03T23:13:57.242Z,0
2017-02-03T23:15:12.412Z,0
2017-02-03T23:16:26.558Z,0
2017-02-03T23:17:40.598Z,0
2017-02-03T23:18:54.741Z,0
2017-02-03T23:20:08.718Z,0
2017-02-03T23:21:23.186Z,0
2017-02-03T23:22:37.680Z,0
2017-02-03T23:23:51.773Z,0
2017-02-03T23:25:05.709Z,0
2017-02-03T23:26:20.780Z,0
2017-02-03T23:27:35.050Z,0
2017-02-03T23:28:49.154Z,0
2017-02-03T23:30:03.103Z,0
2017-02-03T23:31:18.675Z,0
2017-02-03T23:32:32.666Z,0
2017-02-03T23:33:47.144Z,0
2017-02-03T23:35:01.133Z,0
2017-02-03T23:36:15.708Z,0
2017-02-03T23:37:30.158Z,0
2017-02-03T23:38:44.787Z,0
2017-02-03T23:39:59.530Z,0
2017-02-03T23:41:14.120Z,0
2017-02-03T23:42:28.077Z,0
2017-02-03T23:43:42.753Z,0
2017-02-03T23:44:57.772Z,0
2017-02-03T23:46:15.244Z,0
2017-02-03T23:47:30.934Z,0
2017-02-03T23:48:46.327Z,0
2017-02-03T23:50:01.059Z,0
2017-02-03T23:51:15.292Z,0
2017-02-03T23:52:40.055Z,0
2017-02-03T23:53:55.742Z,0
2017-02-03T23:55:09.968Z,0
2017-02-03T23:56:24.526Z,0
2017-02-03T23:57:40.038Z,0
2017-02-03T23:58:56.029Z,0
